Hopkins, South Carolina
Current Conditions -  °F | °C
As of 7:08 AM on Saturday 25 Oct 2014 (Local Time) from KMMT Reporting Station
Haze Haze  
Wind Chill: 39°   Ceiling: Unl
Heat Index: 39°   Visibility: 5mi
Dew Point: 39°   Wind: 2mph
Humidity: 100%   Direction: NA
Pressure: 30.02"   Gusts: NA
Location:  33.9°N, 80.88°W
Report Text: KMMT 251108Z AUTO VRB02KT 5SM BR CLR 04/04 A3002 RMK AO2
Loading
Personal Weather Stations






























Interactive Weather Map
Tropical Storm Tracking
New forecast layout! Learn more

10-Day Weather Forecast

Advertisements
Track Severe Weather on mobile